sensor_id;sensor_type;location;lat;lon;timestamp;P1;durP1;ratioP1;P2;durP2;ratioP2
32812;SDS011;19162;48.254;11.454;2023-09-30T00:01:02;24.42;;;15.98;;
32812;SDS011;19162;48.254;11.454;2023-09-30T00:04:03;24.67;;;17.23;;
32812;SDS011;19162;48.254;11.454;2023-09-30T00:07:05;23.65;;;15.77;;
32812;SDS011;19162;48.254;11.454;2023-09-30T00:10:05;24.37;;;16.23;;
32812;SDS011;19162;48.254;11.454;2023-09-30T00:13:06;23.77;;;16.08;;
32812;SDS011;19162;48.254;11.454;2023-09-30T00:16:06;22.73;;;15.45;;
32812;SDS011;19162;48.254;11.454;2023-09-30T00:19:07;25.10;;;16.27;;
32812;SDS011;19162;48.254;11.454;2023-09-30T00:22:07;21.87;;;15.20;;
32812;SDS011;19162;48.254;11.454;2023-09-30T00:25:07;23.02;;;16.20;;
32812;SDS011;19162;48.254;11.454;2023-09-30T00:28:08;25.67;;;15.90;;
32812;SDS011;19162;48.254;11.454;2023-09-30T00:31:08;20.80;;;15.10;;
32812;SDS011;19162;48.254;11.454;2023-09-30T00:34:11;25.05;;;15.90;;
32812;SDS011;19162;48.254;11.454;2023-09-30T00:37:11;23.30;;;15.38;;
32812;SDS011;19162;48.254;11.454;2023-09-30T00:40:11;18.90;;;14.50;;
32812;SDS011;19162;48.254;11.454;2023-09-30T00:43:17;24.57;;;16.37;;
32812;SDS011;19162;48.254;11.454;2023-09-30T00:49:17;22.30;;;15.00;;
32812;SDS011;19162;48.254;11.454;2023-09-30T00:52:18;22.52;;;16.00;;
32812;SDS011;19162;48.254;11.454;2023-09-30T00:55:19;23.38;;;15.10;;
32812;SDS011;19162;48.254;11.454;2023-09-30T00:58:19;22.45;;;14.18;;
32812;SDS011;19162;48.254;11.454;2023-09-30T01:01:20;17.77;;;13.40;;
32812;SDS011;19162;48.254;11.454;2023-09-30T01:04:20;21.20;;;14.43;;
32812;SDS011;19162;48.254;11.454;2023-09-30T01:07:21;20.83;;;14.32;;
32812;SDS011;19162;48.254;11.454;2023-09-30T01:10:22;22.33;;;15.13;;
32812;SDS011;19162;48.254;11.454;2023-09-30T01:13:22;24.73;;;16.23;;
32812;SDS011;19162;48.254;11.454;2023-09-30T01:16:22;20.85;;;14.60;;
32812;SDS011;19162;48.254;11.454;2023-09-30T01:19:23;21.85;;;15.50;;
32812;SDS011;19162;48.254;11.454;2023-09-30T01:22:24;20.67;;;14.43;;
32812;SDS011;19162;48.254;11.454;2023-09-30T01:25:24;19.23;;;13.70;;
32812;SDS011;19162;48.254;11.454;2023-09-30T01:28:25;21.67;;;15.83;;
32812;SDS011;19162;48.254;11.454;2023-09-30T01:31:26;20.80;;;15.52;;
32812;SDS011;19162;48.254;11.454;2023-09-30T01:34:27;22.25;;;15.75;;
32812;SDS011;19162;48.254;11.454;2023-09-30T01:37:27;23.43;;;16.27;;
32812;SDS011;19162;48.254;11.454;2023-09-30T01:40:30;22.45;;;16.42;;
32812;SDS011;19162;48.254;11.454;2023-09-30T01:43:31;19.83;;;14.82;;
32812;SDS011;19162;48.254;11.454;2023-09-30T01:46:31;24.20;;;15.77;;
32812;SDS011;19162;48.254;11.454;2023-09-30T01:49:31;23.00;;;15.68;;
32812;SDS011;19162;48.254;11.454;2023-09-30T01:52:31;24.67;;;15.63;;
32812;SDS011;19162;48.254;11.454;2023-09-30T01:55:34;23.43;;;17.17;;
32812;SDS011;19162;48.254;11.454;2023-09-30T01:58:35;23.17;;;17.25;;
32812;SDS011;19162;48.254;11.454;2023-09-30T02:01:36;27.90;;;17.17;;
32812;SDS011;19162;48.254;11.454;2023-09-30T02:04:36;24.08;;;16.83;;
32812;SDS011;19162;48.254;11.454;2023-09-30T02:07:36;24.00;;;16.42;;
32812;SDS011;19162;48.254;11.454;2023-09-30T02:10:36;36.50;;;27.13;;
32812;SDS011;19162;48.254;11.454;2023-09-30T02:13:37;33.63;;;23.73;;
32812;SDS011;19162;48.254;11.454;2023-09-30T02:16:40;34.35;;;20.45;;
32812;SDS011;19162;48.254;11.454;2023-09-30T02:22:40;25.13;;;18.77;;
32812;SDS011;19162;48.254;11.454;2023-09-30T02:25:40;26.38;;;18.08;;
32812;SDS011;19162;48.254;11.454;2023-09-30T02:28:40;23.77;;;16.60;;
32812;SDS011;19162;48.254;11.454;2023-09-30T02:31:40;24.67;;;18.80;;
32812;SDS011;19162;48.254;11.454;2023-09-30T02:34:41;27.10;;;17.38;;
32812;SDS011;19162;48.254;11.454;2023-09-30T02:37:44;21.80;;;17.15;;
32812;SDS011;19162;48.254;11.454;2023-09-30T02:40:44;24.33;;;16.57;;
32812;SDS011;19162;48.254;11.454;2023-09-30T02:43:46;26.15;;;16.98;;
32812;SDS011;19162;48.254;11.454;2023-09-30T02:46:46;24.52;;;17.20;;
32812;SDS011;19162;48.254;11.454;2023-09-30T02:49:46;27.30;;;17.77;;
32812;SDS011;19162;48.254;11.454;2023-09-30T02:52:47;24.63;;;17.00;;
32812;SDS011;19162;48.254;11.454;2023-09-30T02:55:47;23.85;;;17.52;;
32812;SDS011;19162;48.254;11.454;2023-09-30T02:58:47;23.80;;;16.87;;
32812;SDS011;19162;48.254;11.454;2023-09-30T03:01:47;25.80;;;16.90;;
32812;SDS011;19162;48.254;11.454;2023-09-30T03:04:48;26.00;;;18.15;;
32812;SDS011;19162;48.254;11.454;2023-09-30T03:07:50;25.80;;;17.15;;
32812;SDS011;19162;48.254;11.454;2023-09-30T03:10:53;26.92;;;18.02;;
32812;SDS011;19162;48.254;11.454;2023-09-30T03:13:53;22.67;;;16.33;;
32812;SDS011;19162;48.254;11.454;2023-09-30T03:16:55;20.75;;;16.63;;
32812;SDS011;19162;48.254;11.454;2023-09-30T03:19:55;24.77;;;18.57;;
32812;SDS011;19162;48.254;11.454;2023-09-30T03:22:57;25.15;;;17.83;;
32812;SDS011;19162;48.254;11.454;2023-09-30T03:25:57;26.33;;;18.73;;
32812;SDS011;19162;48.254;11.454;2023-09-30T03:28:58;26.83;;;18.15;;
32812;SDS011;19162;48.254;11.454;2023-09-30T03:31:58;26.33;;;17.88;;
32812;SDS011;19162;48.254;11.454;2023-09-30T03:34:58;27.42;;;18.92;;
32812;SDS011;19162;48.254;11.454;2023-09-30T03:38:00;23.90;;;17.30;;
32812;SDS011;19162;48.254;11.454;2023-09-30T03:41:02;23.83;;;17.90;;
32812;SDS011;19162;48.254;11.454;2023-09-30T03:44:02;23.97;;;17.67;;
32812;SDS011;19162;48.254;11.454;2023-09-30T03:47:02;25.70;;;17.80;;
32812;SDS011;19162;48.254;11.454;2023-09-30T03:50:03;25.73;;;17.43;;
32812;SDS011;19162;48.254;11.454;2023-09-30T03:53:04;22.52;;;15.90;;
32812;SDS011;19162;48.254;11.454;2023-09-30T03:56:05;21.25;;;16.33;;
32812;SDS011;19162;48.254;11.454;2023-09-30T03:59:06;22.70;;;17.83;;
32812;SDS011;19162;48.254;11.454;2023-09-30T04:02:08;22.27;;;16.20;;
32812;SDS011;19162;48.254;11.454;2023-09-30T04:05:09;24.70;;;17.17;;
32812;SDS011;19162;48.254;11.454;2023-09-30T04:08:14;25.98;;;17.40;;
32812;SDS011;19162;48.254;11.454;2023-09-30T04:11:15;24.45;;;17.13;;
32812;SDS011;19162;48.254;11.454;2023-09-30T04:14:18;25.80;;;18.30;;
32812;SDS011;19162;48.254;11.454;2023-09-30T04:17:18;24.23;;;17.23;;
32812;SDS011;19162;48.254;11.454;2023-09-30T04:20:18;22.90;;;17.90;;
32812;SDS011;19162;48.254;11.454;2023-09-30T04:23:23;22.75;;;16.42;;
32812;SDS011;19162;48.254;11.454;2023-09-30T04:26:23;24.38;;;17.65;;
32812;SDS011;19162;48.254;11.454;2023-09-30T04:29:25;24.95;;;17.10;;
32812;SDS011;19162;48.254;11.454;2023-09-30T04:32:25;23.37;;;16.17;;
32812;SDS011;19162;48.254;11.454;2023-09-30T04:35:27;23.50;;;15.93;;
32812;SDS011;19162;48.254;11.454;2023-09-30T04:38:27;22.80;;;16.13;;
32812;SDS011;19162;48.254;11.454;2023-09-30T04:41:27;21.48;;;16.13;;
32812;SDS011;19162;48.254;11.454;2023-09-30T04:44:28;25.85;;;17.10;;
32812;SDS011;19162;48.254;11.454;2023-09-30T04:47:29;24.40;;;16.42;;
32812;SDS011;19162;48.254;11.454;2023-09-30T04:50:29;23.13;;;17.88;;
32812;SDS011;19162;48.254;11.454;2023-09-30T04:53:30;25.33;;;17.15;;
32812;SDS011;19162;48.254;11.454;2023-09-30T04:56:30;24.20;;;16.80;;
32812;SDS011;19162;48.254;11.454;2023-09-30T04:59:31;26.17;;;17.23;;
32812;SDS011;19162;48.254;11.454;2023-09-30T05:02:31;26.60;;;17.45;;
32812;SDS011;19162;48.254;11.454;2023-09-30T05:05:31;25.15;;;16.75;;
32812;SDS011;19162;48.254;11.454;2023-09-30T05:08:31;21.15;;;14.98;;
32812;SDS011;19162;48.254;11.454;2023-09-30T05:11:31;24.38;;;16.67;;
32812;SDS011;19162;48.254;11.454;2023-09-30T05:14:31;21.35;;;16.35;;
32812;SDS011;19162;48.254;11.454;2023-09-30T05:17:31;25.92;;;16.05;;
32812;SDS011;19162;48.254;11.454;2023-09-30T05:20:32;24.37;;;16.30;;
32812;SDS011;19162;48.254;11.454;2023-09-30T05:23:32;21.98;;;16.52;;
32812;SDS011;19162;48.254;11.454;2023-09-30T05:26:32;21.87;;;16.33;;
32812;SDS011;19162;48.254;11.454;2023-09-30T05:29:32;26.55;;;17.88;;
32812;SDS011;19162;48.254;11.454;2023-09-30T05:32:33;24.70;;;17.33;;
32812;SDS011;19162;48.254;11.454;2023-09-30T05:35:34;24.48;;;17.40;;
32812;SDS011;19162;48.254;11.454;2023-09-30T05:38:34;23.98;;;17.13;;
32812;SDS011;19162;48.254;11.454;2023-09-30T05:41:35;22.50;;;15.65;;
32812;SDS011;19162;48.254;11.454;2023-09-30T05:44:35;23.37;;;17.47;;
32812;SDS011;19162;48.254;11.454;2023-09-30T05:47:35;21.83;;;15.70;;
32812;SDS011;19162;48.254;11.454;2023-09-30T05:50:35;22.63;;;15.73;;
32812;SDS011;19162;48.254;11.454;2023-09-30T05:53:36;21.73;;;16.33;;
32812;SDS011;19162;48.254;11.454;2023-09-30T05:59:42;22.00;;;16.13;;
32812;SDS011;19162;48.254;11.454;2023-09-30T06:02:42;24.90;;;16.38;;
32812;SDS011;19162;48.254;11.454;2023-09-30T06:05:43;22.17;;;14.82;;
32812;SDS011;19162;48.254;11.454;2023-09-30T06:08:43;27.75;;;16.38;;
32812;SDS011;19162;48.254;11.454;2023-09-30T06:11:46;21.20;;;15.65;;
32812;SDS011;19162;48.254;11.454;2023-09-30T06:14:46;20.87;;;14.67;;
32812;SDS011;19162;48.254;11.454;2023-09-30T06:17:48;22.42;;;15.18;;
32812;SDS011;19162;48.254;11.454;2023-09-30T06:20:49;19.85;;;14.15;;
32812;SDS011;19162;48.254;11.454;2023-09-30T06:23:49;18.67;;;13.30;;
32812;SDS011;19162;48.254;11.454;2023-09-30T06:26:51;19.13;;;13.38;;
32812;SDS011;19162;48.254;11.454;2023-09-30T06:29:52;20.83;;;13.87;;
32812;SDS011;19162;48.254;11.454;2023-09-30T06:32:52;20.83;;;13.95;;
32812;SDS011;19162;48.254;11.454;2023-09-30T06:35:53;17.17;;;12.80;;
32812;SDS011;19162;48.254;11.454;2023-09-30T06:38:53;19.40;;;13.70;;
32812;SDS011;19162;48.254;11.454;2023-09-30T06:41:53;21.38;;;13.23;;
32812;SDS011;19162;48.254;11.454;2023-09-30T06:44:54;18.23;;;12.65;;
32812;SDS011;19162;48.254;11.454;2023-09-30T06:47:54;18.37;;;12.80;;
32812;SDS011;19162;48.254;11.454;2023-09-30T06:50:55;14.82;;;11.23;;
32812;SDS011;19162;48.254;11.454;2023-09-30T06:53:55;17.83;;;11.40;;
32812;SDS011;19162;48.254;11.454;2023-09-30T06:56:55;14.07;;;10.33;;
32812;SDS011;19162;48.254;11.454;2023-09-30T06:59:55;14.25;;;10.10;;
32812;SDS011;19162;48.254;11.454;2023-09-30T07:02:55;15.45;;;11.25;;
32812;SDS011;19162;48.254;11.454;2023-09-30T07:05:55;14.68;;;9.88;;
32812;SDS011;19162;48.254;11.454;2023-09-30T07:08:56;12.60;;;8.60;;
32812;SDS011;19162;48.254;11.454;2023-09-30T07:11:57;13.80;;;9.47;;
32812;SDS011;19162;48.254;11.454;2023-09-30T07:14:58;10.23;;;8.63;;
32812;SDS011;19162;48.254;11.454;2023-09-30T07:17:58;13.15;;;8.73;;
32812;SDS011;19162;48.254;11.454;2023-09-30T07:20:59;10.13;;;7.50;;
32812;SDS011;19162;48.254;11.454;2023-09-30T07:23:59;8.40;;;6.25;;
32812;SDS011;19162;48.254;11.454;2023-09-30T07:26:59;8.80;;;6.78;;
32812;SDS011;19162;48.254;11.454;2023-09-30T07:29:59;9.82;;;7.22;;
32812;SDS011;19162;48.254;11.454;2023-09-30T07:32:59;10.80;;;7.68;;
32812;SDS011;19162;48.254;11.454;2023-09-30T07:36:00;9.60;;;7.13;;
32812;SDS011;19162;48.254;11.454;2023-09-30T07:39:00;9.93;;;6.95;;
32812;SDS011;19162;48.254;11.454;2023-09-30T07:42:00;9.15;;;6.97;;
32812;SDS011;19162;48.254;11.454;2023-09-30T07:45:01;9.73;;;6.53;;
32812;SDS011;19162;48.254;11.454;2023-09-30T07:48:03;8.95;;;6.65;;
32812;SDS011;19162;48.254;11.454;2023-09-30T07:51:04;8.23;;;6.18;;
32812;SDS011;19162;48.254;11.454;2023-09-30T07:54:06;10.20;;;6.70;;
32812;SDS011;19162;48.254;11.454;2023-09-30T07:57:06;10.57;;;6.97;;
32812;SDS011;19162;48.254;11.454;2023-09-30T08:00:07;9.25;;;6.97;;
32812;SDS011;19162;48.254;11.454;2023-09-30T08:03:09;10.82;;;7.10;;
32812;SDS011;19162;48.254;11.454;2023-09-30T08:06:09;9.98;;;6.95;;
32812;SDS011;19162;48.254;11.454;2023-09-30T08:09:09;9.90;;;7.55;;
32812;SDS011;19162;48.254;11.454;2023-09-30T08:12:12;10.38;;;6.95;;
32812;SDS011;19162;48.254;11.454;2023-09-30T08:15:13;10.20;;;7.22;;
32812;SDS011;19162;48.254;11.454;2023-09-30T08:18:13;10.85;;;7.07;;
32812;SDS011;19162;48.254;11.454;2023-09-30T08:21:13;10.80;;;7.40;;
32812;SDS011;19162;48.254;11.454;2023-09-30T08:24:13;12.15;;;7.65;;
32812;SDS011;19162;48.254;11.454;2023-09-30T08:27:13;10.03;;;7.50;;
32812;SDS011;19162;48.254;11.454;2023-09-30T08:30:14;12.10;;;7.13;;
32812;SDS011;19162;48.254;11.454;2023-09-30T08:33:14;9.30;;;6.80;;
32812;SDS011;19162;48.254;11.454;2023-09-30T08:36:14;9.80;;;6.03;;
32812;SDS011;19162;48.254;11.454;2023-09-30T08:39:14;7.47;;;5.97;;
32812;SDS011;19162;48.254;11.454;2023-09-30T08:42:14;8.00;;;5.33;;
32812;SDS011;19162;48.254;11.454;2023-09-30T08:45:15;7.10;;;5.38;;
32812;SDS011;19162;48.254;11.454;2023-09-30T08:48:16;7.30;;;5.15;;
32812;SDS011;19162;48.254;11.454;2023-09-30T08:51:16;7.13;;;4.33;;
32812;SDS011;19162;48.254;11.454;2023-09-30T08:54:17;5.97;;;4.60;;
32812;SDS011;19162;48.254;11.454;2023-09-30T08:57:18;6.03;;;4.47;;
32812;SDS011;19162;48.254;11.454;2023-09-30T09:00:19;5.13;;;4.63;;
32812;SDS011;19162;48.254;11.454;2023-09-30T09:03:20;8.80;;;5.30;;
32812;SDS011;19162;48.254;11.454;2023-09-30T09:06:21;5.88;;;4.53;;
32812;SDS011;19162;48.254;11.454;2023-09-30T09:09:21;6.80;;;4.32;;
32812;SDS011;19162;48.254;11.454;2023-09-30T09:12:22;7.70;;;4.75;;
32812;SDS011;19162;48.254;11.454;2023-09-30T09:15:32;4.82;;;4.13;;
32812;SDS011;19162;48.254;11.454;2023-09-30T09:18:33;6.95;;;3.97;;
32812;SDS011;19162;48.254;11.454;2023-09-30T09:21:33;5.32;;;3.92;;
32812;SDS011;19162;48.254;11.454;2023-09-30T09:24:35;5.07;;;4.30;;
32812;SDS011;19162;48.254;11.454;2023-09-30T09:27:36;4.22;;;3.80;;
32812;SDS011;19162;48.254;11.454;2023-09-30T09:30:37;4.40;;;4.00;;
32812;SDS011;19162;48.254;11.454;2023-09-30T09:33:38;5.82;;;3.97;;
32812;SDS011;19162;48.254;11.454;2023-09-30T09:36:42;5.45;;;3.65;;
32812;SDS011;19162;48.254;11.454;2023-09-30T09:39:55;6.93;;;4.68;;
32812;SDS011;19162;48.254;11.454;2023-09-30T09:42:56;6.93;;;3.75;;
32812;SDS011;19162;48.254;11.454;2023-09-30T09:45:57;5.57;;;3.83;;
32812;SDS011;19162;48.254;11.454;2023-09-30T09:48:57;5.30;;;4.55;;
32812;SDS011;19162;48.254;11.454;2023-09-30T09:51:58;5.47;;;4.00;;
32812;SDS011;19162;48.254;11.454;2023-09-30T09:54:58;5.75;;;4.45;;
32812;SDS011;19162;48.254;11.454;2023-09-30T09:57:59;6.00;;;4.27;;
32812;SDS011;19162;48.254;11.454;2023-09-30T10:01:01;6.35;;;3.85;;
32812;SDS011;19162;48.254;11.454;2023-09-30T10:04:02;4.72;;;3.95;;
32812;SDS011;19162;48.254;11.454;2023-09-30T10:07:02;5.60;;;4.20;;
32812;SDS011;19162;48.254;11.454;2023-09-30T10:10:05;5.55;;;4.15;;
32812;SDS011;19162;48.254;11.454;2023-09-30T10:13:06;5.18;;;3.70;;
32812;SDS011;19162;48.254;11.454;2023-09-30T10:16:06;7.03;;;4.65;;
32812;SDS011;19162;48.254;11.454;2023-09-30T10:19:07;5.45;;;4.75;;
32812;SDS011;19162;48.254;11.454;2023-09-30T10:25:35;5.85;;;3.85;;
32812;SDS011;19162;48.254;11.454;2023-09-30T10:28:40;4.90;;;3.92;;
32812;SDS011;19162;48.254;11.454;2023-09-30T10:31:50;5.93;;;4.50;;
32812;SDS011;19162;48.254;11.454;2023-09-30T10:34:52;5.43;;;3.75;;
32812;SDS011;19162;48.254;11.454;2023-09-30T10:37:52;6.13;;;4.35;;
32812;SDS011;19162;48.254;11.454;2023-09-30T10:41:14;5.30;;;4.07;;
32812;SDS011;19162;48.254;11.454;2023-09-30T10:44:33;5.93;;;4.45;;
32812;SDS011;19162;48.254;11.454;2023-09-30T10:47:34;5.30;;;4.38;;
32812;SDS011;19162;48.254;11.454;2023-09-30T10:50:50;8.55;;;5.15;;
32812;SDS011;19162;48.254;11.454;2023-09-30T10:53:51;7.72;;;5.25;;
32812;SDS011;19162;48.254;11.454;2023-09-30T10:56:52;5.97;;;4.72;;
32812;SDS011;19162;48.254;11.454;2023-09-30T11:00:13;5.28;;;4.43;;
32812;SDS011;19162;48.254;11.454;2023-09-30T11:03:16;7.38;;;6.00;;
32812;SDS011;19162;48.254;11.454;2023-09-30T11:09:21;7.32;;;5.72;;
32812;SDS011;19162;48.254;11.454;2023-09-30T11:12:22;7.90;;;5.93;;
32812;SDS011;19162;48.254;11.454;2023-09-30T11:15:22;7.00;;;5.43;;
32812;SDS011;19162;48.254;11.454;2023-09-30T11:18:23;8.73;;;6.40;;
32812;SDS011;19162;48.254;11.454;2023-09-30T11:21:23;8.55;;;5.82;;
32812;SDS011;19162;48.254;11.454;2023-09-30T11:24:23;9.05;;;6.65;;
32812;SDS011;19162;48.254;11.454;2023-09-30T11:27:24;9.70;;;6.13;;
32812;SDS011;19162;48.254;11.454;2023-09-30T11:30:24;8.43;;;6.78;;
32812;SDS011;19162;48.254;11.454;2023-09-30T11:33:26;9.03;;;6.87;;
32812;SDS011;19162;48.254;11.454;2023-09-30T11:36:27;9.98;;;6.95;;
32812;SDS011;19162;48.254;11.454;2023-09-30T11:39:27;11.13;;;8.57;;
32812;SDS011;19162;48.254;11.454;2023-09-30T11:42:28;11.60;;;8.18;;
32812;SDS011;19162;48.254;11.454;2023-09-30T11:45:28;11.93;;;8.80;;
32812;SDS011;19162;48.254;11.454;2023-09-30T11:48:28;13.68;;;8.38;;
32812;SDS011;19162;48.254;11.454;2023-09-30T11:51:28;12.67;;;8.20;;
32812;SDS011;19162;48.254;11.454;2023-09-30T11:54:32;11.35;;;7.22;;
32812;SDS011;19162;48.254;11.454;2023-09-30T11:57:33;12.48;;;7.78;;
32812;SDS011;19162;48.254;11.454;2023-09-30T12:00:35;10.93;;;9.02;;
32812;SDS011;19162;48.254;11.454;2023-09-30T12:03:35;11.40;;;8.80;;
32812;SDS011;19162;48.254;11.454;2023-09-30T12:06:39;13.57;;;8.90;;
32812;SDS011;19162;48.254;11.454;2023-09-30T12:09:40;11.95;;;8.90;;
32812;SDS011;19162;48.254;11.454;2023-09-30T12:12:40;13.82;;;9.80;;
32812;SDS011;19162;48.254;11.454;2023-09-30T12:15:41;16.88;;;12.52;;
32812;SDS011;19162;48.254;11.454;2023-09-30T12:18:41;15.90;;;11.70;;
32812;SDS011;19162;48.254;11.454;2023-09-30T12:21:42;11.50;;;9.13;;
32812;SDS011;19162;48.254;11.454;2023-09-30T12:24:42;12.45;;;8.88;;
32812;SDS011;19162;48.254;11.454;2023-09-30T12:27:42;11.27;;;8.37;;
32812;SDS011;19162;48.254;11.454;2023-09-30T12:30:43;13.25;;;8.25;;
32812;SDS011;19162;48.254;11.454;2023-09-30T12:33:43;10.48;;;8.60;;
32812;SDS011;19162;48.254;11.454;2023-09-30T12:36:44;14.67;;;8.60;;
32812;SDS011;19162;48.254;11.454;2023-09-30T12:39:44;11.63;;;8.48;;
32812;SDS011;19162;48.254;11.454;2023-09-30T12:42:45;10.77;;;7.93;;
32812;SDS011;19162;48.254;11.454;2023-09-30T12:45:45;13.27;;;9.60;;
32812;SDS011;19162;48.254;11.454;2023-09-30T12:48:45;14.43;;;8.43;;
32812;SDS011;19162;48.254;11.454;2023-09-30T12:51:46;14.40;;;9.97;;
32812;SDS011;19162;48.254;11.454;2023-09-30T12:54:46;15.90;;;10.80;;
32812;SDS011;19162;48.254;11.454;2023-09-30T12:57:48;15.95;;;11.05;;
32812;SDS011;19162;48.254;11.454;2023-09-30T13:00:48;13.77;;;10.95;;
32812;SDS011;19162;48.254;11.454;2023-09-30T13:03:48;14.95;;;11.65;;
32812;SDS011;19162;48.254;11.454;2023-09-30T13:06:49;15.33;;;11.20;;
32812;SDS011;19162;48.254;11.454;2023-09-30T13:09:50;13.48;;;10.52;;
32812;SDS011;19162;48.254;11.454;2023-09-30T13:12:50;15.82;;;11.25;;
32812;SDS011;19162;48.254;11.454;2023-09-30T13:15:52;12.98;;;10.60;;
32812;SDS011;19162;48.254;11.454;2023-09-30T13:18:52;14.20;;;11.00;;
32812;SDS011;19162;48.254;11.454;2023-09-30T13:21:53;15.90;;;11.50;;
32812;SDS011;19162;48.254;11.454;2023-09-30T13:24:53;18.87;;;10.53;;
32812;SDS011;19162;48.254;11.454;2023-09-30T13:27:53;14.80;;;11.10;;
32812;SDS011;19162;48.254;11.454;2023-09-30T13:30:53;13.02;;;10.52;;
32812;SDS011;19162;48.254;11.454;2023-09-30T13:33:53;11.02;;;9.13;;
32812;SDS011;19162;48.254;11.454;2023-09-30T13:36:54;13.30;;;10.30;;
32812;SDS011;19162;48.254;11.454;2023-09-30T13:39:55;14.73;;;11.15;;
32812;SDS011;19162;48.254;11.454;2023-09-30T13:42:55;15.47;;;10.70;;
32812;SDS011;19162;48.254;11.454;2023-09-30T13:45:57;15.87;;;11.20;;
32812;SDS011;19162;48.254;11.454;2023-09-30T13:48:58;13.95;;;10.65;;
32812;SDS011;19162;48.254;11.454;2023-09-30T13:51:58;17.13;;;10.73;;
32812;SDS011;19162;48.254;11.454;2023-09-30T13:54:58;17.15;;;12.10;;
32812;SDS011;19162;48.254;11.454;2023-09-30T13:57:58;15.03;;;11.87;;
32812;SDS011;19162;48.254;11.454;2023-09-30T14:00:58;15.45;;;11.02;;
32812;SDS011;19162;48.254;11.454;2023-09-30T14:03:58;15.27;;;11.95;;
32812;SDS011;19162;48.254;11.454;2023-09-30T14:06:59;14.80;;;11.13;;
32812;SDS011;19162;48.254;11.454;2023-09-30T14:10:03;17.55;;;11.75;;
32812;SDS011;19162;48.254;11.454;2023-09-30T14:13:04;13.48;;;9.90;;
32812;SDS011;19162;48.254;11.454;2023-09-30T14:16:04;16.05;;;11.43;;
32812;SDS011;19162;48.254;11.454;2023-09-30T14:19:04;14.67;;;10.80;;
32812;SDS011;19162;48.254;11.454;2023-09-30T14:22:05;15.87;;;10.70;;
32812;SDS011;19162;48.254;11.454;2023-09-30T14:25:05;16.50;;;11.77;;
32812;SDS011;19162;48.254;11.454;2023-09-30T14:28:05;16.63;;;11.82;;
32812;SDS011;19162;48.254;11.454;2023-09-30T14:31:06;15.17;;;12.97;;
32812;SDS011;19162;48.254;11.454;2023-09-30T14:34:06;17.50;;;12.50;;
32812;SDS011;19162;48.254;11.454;2023-09-30T14:37:06;15.80;;;12.13;;
32812;SDS011;19162;48.254;11.454;2023-09-30T14:40:06;15.13;;;12.63;;
32812;SDS011;19162;48.254;11.454;2023-09-30T14:43:10;15.55;;;11.02;;
32812;SDS011;19162;48.254;11.454;2023-09-30T14:46:10;16.10;;;10.53;;
32812;SDS011;19162;48.254;11.454;2023-09-30T14:49:10;16.15;;;11.40;;
32812;SDS011;19162;48.254;11.454;2023-09-30T14:52:11;13.85;;;10.25;;
32812;SDS011;19162;48.254;11.454;2023-09-30T14:55:11;14.57;;;11.02;;
32812;SDS011;19162;48.254;11.454;2023-09-30T14:58:11;14.27;;;11.18;;
32812;SDS011;19162;48.254;11.454;2023-09-30T15:01:11;13.50;;;10.20;;
32812;SDS011;19162;48.254;11.454;2023-09-30T15:04:12;13.38;;;10.70;;
32812;SDS011;19162;48.254;11.454;2023-09-30T15:07:13;14.95;;;11.25;;
32812;SDS011;19162;48.254;11.454;2023-09-30T15:10:13;17.17;;;11.10;;
32812;SDS011;19162;48.254;11.454;2023-09-30T15:13:13;15.13;;;10.97;;
32812;SDS011;19162;48.254;11.454;2023-09-30T15:16:14;15.20;;;10.80;;
32812;SDS011;19162;48.254;11.454;2023-09-30T15:19:14;13.02;;;9.85;;
32812;SDS011;19162;48.254;11.454;2023-09-30T15:22:15;11.33;;;10.13;;
32812;SDS011;19162;48.254;11.454;2023-09-30T15:25:15;13.40;;;10.10;;
32812;SDS011;19162;48.254;11.454;2023-09-30T15:28:17;14.53;;;11.27;;
32812;SDS011;19162;48.254;11.454;2023-09-30T15:31:17;13.60;;;10.13;;
32812;SDS011;19162;48.254;11.454;2023-09-30T15:34:17;12.98;;;10.90;;
32812;SDS011;19162;48.254;11.454;2023-09-30T15:37:17;13.00;;;10.27;;
32812;SDS011;19162;48.254;11.454;2023-09-30T15:40:18;13.70;;;10.63;;
32812;SDS011;19162;48.254;11.454;2023-09-30T15:43:18;13.97;;;10.67;;
32812;SDS011;19162;48.254;11.454;2023-09-30T15:46:18;13.55;;;10.82;;
32812;SDS011;19162;48.254;11.454;2023-09-30T15:49:19;15.57;;;10.82;;
32812;SDS011;19162;48.254;11.454;2023-09-30T15:52:19;14.50;;;10.83;;
32812;SDS011;19162;48.254;11.454;2023-09-30T15:55:19;15.07;;;11.53;;
32812;SDS011;19162;48.254;11.454;2023-09-30T15:58:20;13.30;;;11.07;;
32812;SDS011;19162;48.254;11.454;2023-09-30T16:01:20;14.02;;;11.07;;
32812;SDS011;19162;48.254;11.454;2023-09-30T16:04:20;14.93;;;11.07;;
32812;SDS011;19162;48.254;11.454;2023-09-30T16:07:20;13.00;;;10.95;;
32812;SDS011;19162;48.254;11.454;2023-09-30T16:10:20;13.80;;;11.40;;
32812;SDS011;19162;48.254;11.454;2023-09-30T16:13:21;15.70;;;11.13;;
32812;SDS011;19162;48.254;11.454;2023-09-30T16:16:21;13.10;;;10.57;;
32812;SDS011;19162;48.254;11.454;2023-09-30T16:19:21;12.88;;;10.38;;
32812;SDS011;19162;48.254;11.454;2023-09-30T16:22:22;13.95;;;10.45;;
32812;SDS011;19162;48.254;11.454;2023-09-30T16:25:22;13.93;;;11.02;;
32812;SDS011;19162;48.254;11.454;2023-09-30T16:28:22;14.90;;;12.20;;
32812;SDS011;19162;48.254;11.454;2023-09-30T16:31:22;15.30;;;12.05;;
32812;SDS011;19162;48.254;11.454;2023-09-30T16:34:22;14.13;;;11.20;;
32812;SDS011;19162;48.254;11.454;2023-09-30T16:37:22;17.90;;;11.43;;
32812;SDS011;19162;48.254;11.454;2023-09-30T16:40:23;15.63;;;11.80;;
32812;SDS011;19162;48.254;11.454;2023-09-30T16:43:23;21.70;;;13.30;;
32812;SDS011;19162;48.254;11.454;2023-09-30T16:46:23;15.75;;;12.00;;
32812;SDS011;19162;48.254;11.454;2023-09-30T16:49:24;17.15;;;12.43;;
32812;SDS011;19162;48.254;11.454;2023-09-30T16:52:24;15.87;;;11.33;;
32812;SDS011;19162;48.254;11.454;2023-09-30T16:55:24;23.65;;;13.35;;
32812;SDS011;19162;48.254;11.454;2023-09-30T16:58:25;17.30;;;11.75;;
32812;SDS011;19162;48.254;11.454;2023-09-30T17:01:25;17.42;;;12.63;;
32812;SDS011;19162;48.254;11.454;2023-09-30T17:04:25;18.20;;;13.02;;
32812;SDS011;19162;48.254;11.454;2023-09-30T17:07:25;16.05;;;12.60;;
32812;SDS011;19162;48.254;11.454;2023-09-30T17:10:26;16.83;;;12.10;;
32812;SDS011;19162;48.254;11.454;2023-09-30T17:13:26;15.25;;;11.85;;
32812;SDS011;19162;48.254;11.454;2023-09-30T17:16:26;15.90;;;12.50;;
32812;SDS011;19162;48.254;11.454;2023-09-30T17:19:27;16.25;;;12.55;;
32812;SDS011;19162;48.254;11.454;2023-09-30T17:22:27;17.75;;;12.85;;
32812;SDS011;19162;48.254;11.454;2023-09-30T17:25:27;14.98;;;11.80;;
32812;SDS011;19162;48.254;11.454;2023-09-30T17:28:27;14.00;;;12.27;;
32812;SDS011;19162;48.254;11.454;2023-09-30T17:31:28;15.63;;;12.68;;
32812;SDS011;19162;48.254;11.454;2023-09-30T17:34:28;18.23;;;13.18;;
32812;SDS011;19162;48.254;11.454;2023-09-30T17:37:29;21.40;;;13.98;;
32812;SDS011;19162;48.254;11.454;2023-09-30T17:40:29;16.65;;;13.80;;
32812;SDS011;19162;48.254;11.454;2023-09-30T17:43:30;17.30;;;13.43;;
32812;SDS011;19162;48.254;11.454;2023-09-30T17:46:30;16.20;;;12.95;;